Flight Track Log - Related Links

Times and Time Zones

All times are in EDT time to prevent confusion due to time zone crossing. See the NGF80W flight status page for this flight to view local times or setup timezone preferences in your user account.

Time Position Orientation Groundspeed Altitude Reporting Facility
EDT Latitude Longitude Course Direction KTS MPH feet Rate Location/Type
Tue 10:38:22 AM 41.5294 -81.6731 335° Northwest 114 131 1,100  Level Cleveland Center
Tue 10:39:04 AM 41.5481 -81.6847 335° Northwest 122 140 2,000 1,165 Climbing Cleveland Center
Tue 10:40:05 AM 41.5750 -81.7211 315° West 135 155 3,100 984 Climbing Cleveland Center
Tue 10:41:06 AM 41.5892 -81.7686 292° West 136 157 4,000 843 Climbing Cleveland Center
Tue 10:42:06 AM 41.6031 -81.8161 291° West 147 169 4,800 793 Climbing Cleveland Center
Tue 10:43:07 AM 41.6089 -81.8689 278° West 145 167 5,600 621 Climbing Cleveland Center
Tue 10:44:02 AM 41.6103 -81.9244 272° West 156 180 6,000 209 Climbing Cleveland Center
Tue 10:45:02 AM 41.6117 -81.9883 272° West 182 209 6,000  Level Cleveland Center
Tue 10:46:03 AM 41.6192 -82.0553 279° West 179 206 6,000  Level Cleveland Center
Tue 10:47:03 AM 41.6244 -82.1192 276° West 175 201 6,000  Level Cleveland Center
Tue 10:48:04 AM 41.6278 -82.1833 274° West 173 199 6,000  Level Cleveland Center
Tue 10:49:05 AM 41.6311 -82.2500 274° West 169 194 6,000  Level Cleveland Center
Tue 10:50:05 AM 41.6364 -82.3139 276° West 173 199 6,000  Level Cleveland Center
Tue 10:51:06 AM 41.6375 -82.3781 271° West 176 203 6,000  Level Cleveland Center
Tue 10:52:07 AM 41.6406 -82.4392 274° West 171 197 6,000  Level Cleveland Center
Tue 10:53:13 AM 41.6436 -82.5086 273° West 171 197 6,000  Level Cleveland Center
Tue 10:54:14 AM 41.6467 -82.5783 273° West 171 197 6,000  Level Cleveland Center
Tue 10:55:14 AM 41.6497 -82.6394 274° West 171 197 6,000  Level Cleveland Center
Tue 10:57:00 AM 41.6160 -82.7551 249° West  Level FlightAware Approximate
Tue 11:04:00 AM 41.6451 -83.2457 275° West  Level Estimated
Tue 11:05:00 AM 41.6457 -83.3160 271° West  Level FlightAware Approximate
Tue 11:06:00 AM 41.6464 -83.3863 271° West  Level FlightAware Approximate
Tue 11:07:00 AM 41.6470 -83.4566 271° West  Level FlightAware Approximate
Tue 11:08:00 AM 41.6476 -83.5269 271° West  Level FlightAware Approximate
Tue 11:08:05 AM 41.6981 -83.4519 270° West 193 222 6,000  Level Chicago Center
Tue 11:09:00 AM 41.6481 -83.5972 271° West  Level FlightAware Approximate
Tue 11:09:06 AM 41.7014 -83.5169 274° West 177 204 5,900  Level Chicago Center
Tue 11:10:00 AM 41.6486 -83.6675 271° West  Level FlightAware Approximate
Tue 11:10:08 AM 41.7086 -83.5942 277° West 175 201 5,900  Level Chicago Center
Tue 11:11:00 AM 41.6491 -83.7378 271° West  Level FlightAware Approximate
Tue 11:11:09 AM 41.7131 -83.6583 275° West 174 200 5,900  Level Chicago Center
Tue 11:12:00 AM 41.6495 -83.8081 270° West  Level FlightAware Approximate
Tue 11:12:11 AM 41.7161 -83.7228 274° West 174 200 5,900  Level Chicago Center
Tue 11:13:00 AM 41.6498 -83.8784 270° West  Level FlightAware Approximate
Tue 11:13:12 AM 41.7194 -83.7881 274° West 176 203 5,900  Level Chicago Center
Tue 11:14:14 AM 41.7219 -83.8522 273° West 175 201 6,000  Climbing Chicago Center
Tue 11:15:16 AM 41.7247 -83.9183 273° West 176 203 5,900 -49 Descending Chicago Center
Tue 11:16:17 AM 41.7278 -83.9856 274° West 178 205 5,900  Level Chicago Center
Tue 11:17:19 AM 41.7303 -84.0508 273° West 178 205 5,900  Level Chicago Center
Tue 11:18:20 AM 41.7353 -84.1322 275° West 180 207 5,900  Level Chicago Center
Tue 11:19:22 AM 41.7386 -84.2000 274° West 182 209 5,900  Level Chicago Center
Tue 11:20:24 AM 41.7419 -84.2681 274° West 183 211 5,900  Level Chicago Center
Tue 11:21:25 AM 41.7453 -84.3369 274° West 184 212 5,900  Level Chicago Center
Tue 11:22:27 AM 41.7492 -84.4050 274° West 184 212 5,900  Level Chicago Center
Tue 11:23:28 AM 41.7542 -84.4728 276° West 184 212 5,900  Level Chicago Center
Tue 11:24:30 AM 41.7581 -84.5411 274° West 184 212 5,900  Level Chicago Center
Tue 11:25:32 AM 41.7631 -84.6233 275° West 185 213 5,900  Level Chicago Center
Tue 11:26:33 AM 41.7667 -84.6914 274° West 185 213 5,900  Level Chicago Center
Tue 11:27:35 AM 41.7703 -84.7586 274° West 183 211 5,900  Level Chicago Center
Tue 11:28:37 AM 41.7747 -84.8278 275° West 185 213 5,900  Level Chicago Center
Tue 11:29:39 AM 41.7786 -84.8956 274° West 184 212 5,900  Level Chicago Center
Tue 11:30:40 AM 41.7828 -84.9636 275° West 184 212 5,900  Level Chicago Center
Tue 11:31:42 AM 41.7867 -85.0311 274° West 183 211 5,900  Level Chicago Center
Tue 11:32:44 AM 41.7919 -85.1111 275° West 182 209 5,900  Level Chicago Center
Tue 11:33:45 AM 41.7953 -85.1789 274° West 182 209 5,900  Level Chicago Center
Tue 11:34:47 AM 41.7997 -85.2461 275° West 183 211 5,900  Level Chicago Center
Tue 11:35:49 AM 41.8031 -85.3147 274° West 184 212 5,900  Level Chicago Center
Tue 11:36:50 AM 41.8078 -85.3825 275° West 185 213 5,900  Level Chicago Center
Tue 11:37:52 AM 41.8103 -85.4506 273° West 185 213 5,900  Level Chicago Center
Tue 11:38:54 AM 41.7936 -85.5267 254° West 185 213 5,900  Level Chicago Center
Tue 11:39:56 AM 41.7686 -85.5839 240° Southwest 181 208 5,900  Level Chicago Center
Tue 11:40:57 AM 41.7428 -85.6394 238° Southwest 180 207 5,900  Level Chicago Center
Tue 11:41:59 AM 41.7150 -85.6939 236° Southwest 179 206 5,900 48 Level Chicago Center
Tue 11:43:01 AM 41.6853 -85.7450 232° Southwest 177 204 6,000  Climbing Chicago Center
Tue 11:44:03 AM 41.6556 -85.8131 240° Southwest 177 204 5,900 -49 Descending Chicago Center
Tue 11:45:04 AM 41.6300 -85.8681 238° Southwest 176 203 5,900  Level Chicago Center
Tue 11:46:06 AM 41.6042 -85.9242 238° Southwest 176 203 5,900 48 Level Chicago Center
Tue 11:47:08 AM 41.5800 -85.9800 240° Southwest 176 203 6,000 48 Climbing Chicago Center
Tue 11:48:10 AM 41.5558 -86.0358 240° Southwest 175 201 6,000  Level Chicago Center
Tue 11:49:12 AM 41.5311 -86.0917 239° Southwest 175 201 6,000  Level Chicago Center
Tue 11:50:13 AM 41.5031 -86.1617 242° Southwest 178 205 6,000  Level Chicago Center
Tue 11:51:15 AM 41.4786 -86.2186 240° Southwest 177 204 6,000  Level Chicago Center
Tue 11:52:17 AM 41.4547 -86.2742 240° Southwest 175 201 6,000  Level Chicago Center
Tue 11:53:19 AM 41.4303 -86.3314 240° Southwest 177 204 6,000  Level Chicago Center
Tue 11:54:20 AM 41.4064 -86.3883 241° Southwest 177 204 6,000  Level Chicago Center
Tue 11:55:22 AM 41.3825 -86.4464 241° Southwest 178 205 6,000  Level Chicago Center
Tue 11:56:24 AM 41.3583 -86.5039 241° Southwest 179 206 6,000  Level Chicago Center
Tue 11:57:26 AM 41.3272 -86.5736 239° Southwest 181 208 6,000  Level Chicago Center
Tue 11:58:28 AM 41.3019 -86.6300 239° Southwest 180 207 6,000  Level Chicago Center
Tue 11:59:30 AM 41.2786 -86.6892 242° Southwest 180 207 6,000  Level Chicago Center
Tue 12:00:32 PM 41.2539 -86.7522 242° Southwest 181 208 6,000  Level Chicago Center
Tue 12:01:34 PM 41.2306 -86.8106 242° Southwest 180 207 6,000  Level Chicago Center
Tue 12:02:36 PM 41.2067 -86.8700 242° Southwest 182 209 6,000  Level Chicago Center
Tue 12:03:38 PM 41.1836 -86.9306 243° Southwest 184 212 6,000  Level Chicago Center
Tue 12:04:40 PM 41.1925 -87.0094 279° West 179 206 6,000  Level Chicago Center
Tue 12:05:42 PM 41.1981 -87.0767 276° West 184 212 6,000  Level Chicago Center
Tue 12:06:44 PM 41.2064 -87.1414 280° West 181 208 6,000  Level Chicago Center
Tue 12:07:45 PM 41.2144 -87.2081 279° West 183 211 6,000  Level Chicago Center
Tue 12:08:47 PM 41.2236 -87.2733 281° West 181 208 6,000  Level Chicago Center
Tue 12:09:49 PM 41.2328 -87.3397 280° West 183 211 6,000  Level Chicago Center
Tue 12:10:51 PM 41.2336 -87.4203 271° West 182 209 6,000  Level Chicago Center
Tue 12:11:53 PM 41.2414 -87.4842 279° West 182 209 6,000  Level Chicago Center
Tue 12:12:55 PM 41.2508 -87.5514 281° West 180 207 6,000  Level Chicago Center
Tue 12:13:57 PM 41.2583 -87.6153 279° West 179 206 6,000  Level Chicago Center
Tue 12:14:59 PM 41.2664 -87.6794 280° West 177 204 6,000  Level Chicago Center
Tue 12:16:01 PM 41.2719 -87.7444 277° West 178 205 6,000  Level Chicago Center
Tue 12:17:02 PM 41.2828 -87.8211 281° West 176 203 6,000  Level Chicago Center
Tue 12:18:04 PM 41.2908 -87.8861 279° West 178 205 6,000  Level Chicago Center
Tue 12:19:06 PM 41.2950 -87.9506 275° West 177 204 6,000  Level Chicago Center
Tue 12:20:08 PM 41.3028 -88.0153 279° West 176 203 6,000  Level Chicago Center
Tue 12:21:10 PM 41.3114 -88.0806 280° West 178 205 6,000  Level Chicago Center
Tue 12:22:12 PM 41.3203 -88.1472 280° West 181 208 6,000  Level Chicago Center
Tue 12:23:14 PM 41.3278 -88.2158 278° West 185 213 6,000  Level Chicago Center
Tue 12:24:16 PM 41.3394 -88.2969 281° West 186 214 6,000  Level Chicago Center
Tue 12:25:18 PM 41.3514 -88.3628 284° West 185 213 6,000  Level Chicago Center
Tue 12:26:20 PM 41.3636 -88.4272 284° West 182 209 6,000  Level Chicago Center
Tue 12:27:21 PM 41.3806 -88.4908 290° West 182 209 6,000  Level Chicago Center
Tue 12:28:23 PM 41.3947 -88.5561 286° West 185 213 6,000  Level Chicago Center
Tue 12:29:25 PM 41.4106 -88.6189 289° West 182 209 6,000  Level Chicago Center
Tue 12:30:27 PM 41.4319 -88.6933 291° West 181 208 6,000  Level Chicago Center
Tue 12:31:29 PM 41.4492 -88.7561 290° West 181 208 6,000  Level Chicago Center
Tue 12:32:31 PM 41.4658 -88.8186 290° West 180 207 6,000  Level Chicago Center
Tue 12:33:33 PM 41.4842 -88.8794 292° West 179 206 6,000  Level Chicago Center
Tue 12:34:35 PM 41.4992 -88.9428 288° West 180 207 6,000  Level Chicago Center
Tue 12:35:37 PM 41.5136 -89.0033 288° West 174 200 6,000  Level Chicago Center
Tue 12:36:39 PM 41.5306 -89.0778 287° West 174 200 6,000 49 Level Chicago Center
Tue 12:37:40 PM 41.5447 -89.1403 287° West 177 204 6,100 49 Climbing Chicago Center
Tue 12:38:42 PM 41.5578 -89.2031 286° West 178 205 6,100  Level Chicago Center
Tue 12:39:44 PM 41.5719 -89.2644 287° West 176 203 6,100  Level Chicago Center
Tue 12:40:46 PM 41.5886 -89.3236 291° West 174 200 6,100  Level Chicago Center
Tue 12:41:48 PM 41.6011 -89.3872 285° West 175 201 6,100 -48 Level Chicago Center
Tue 12:42:50 PM 41.6197 -89.4592 289° West 174 200 6,000 -48 Descending Chicago Center
Tue 12:43:52 PM 41.6381 -89.5194 292° West 175 201 6,000  Level Chicago Center
Tue 12:44:53 PM 41.6528 -89.5811 288° West 175 201 6,000 -49 Level Chicago Center
Tue 12:45:55 PM 41.6678 -89.6422 288° West 175 201 5,900 -48 Descending Chicago Center
Tue 12:46:57 PM 41.6811 -89.7036 286° West 174 200 5,900 -194 Level Chicago Center
Tue 12:47:59 PM 41.7028 -89.7794 291° West 178 205 5,500 -387 Descending Chicago Center
Tue 12:49:01 PM 41.7200 -89.8444 290° West 184 212 5,100 -484 Descending Chicago Center
Tue 12:50:03 PM 41.7347 -89.9078 287° West 182 209 4,500 -484 Descending Chicago Center
Tue 12:51:05 PM 41.7503 -89.9722 288° West 182 209 4,100 -387 Descending Chicago Center
Tue 12:52:07 PM 41.7639 -90.0344 286° West 179 206 3,700 -339 Descending Chicago Center
Tue 12:53:09 PM 41.7783 -90.1047 285° West 177 204 3,400 -290 Descending Chicago Center
Tue 12:55:00 PM 41.8052 -90.2180 288° West  Level FlightAware Approximate
Tue 01:02:00 PM 41.8167 -90.3167 270° West  Level FlightAware Approximate
Tue 01:03:00 PM 41.8307 -90.3290 270° West  Level Estimated
Tue 01:04:00 PM 41.8307 -90.3290 270° West  Level Estimated

Login

Don't have an account? Register now (free) for customized features, flight alerts, and more!